Time;durP1;ratioP1;P1;durP2;ratioP2;P2;SDS_P1;SDS_P2;PMS_P1;PMS_P2;Temp;Humidity;BMP_temperature;BMP_pressure;BME280_temperature;BME280_humidity;BME280_pressure;Samples;Min_cycle;Max_cycle;Signal;HPM_P1;HPM_P2
2022/03/09 00:01:58;;;;;;;;;;;3.80;59.60;;;;;;4981390;28;19934;-69
2022/03/09 00:04:24;;;;;;;;;;;3.80;59.80;;;;;;4982898;28;20043;-69
2022/03/09 00:06:51;;;;;;;;;;;3.80;59.90;;;;;;4984541;28;19930;-71
2022/03/09 00:09:19;;;;;;;;;;;3.70;59.90;;;;;;4983658;28;19930;-70
2022/03/09 00:11:45;;;;;;;;;;;3.70;60.00;;;;;;4984920;28;19952;-70
2022/03/09 00:14:12;;;;;;;;;;;3.70;60.10;;;;;;4982130;28;19937;-70
2022/03/09 00:16:39;;;;;;;;;;;3.70;60.10;;;;;;4983743;28;19930;-70
2022/03/09 00:19:05;;;;;;;;;;;3.60;60.10;;;;;;4982127;28;19934;-70
2022/03/09 00:21:32;;;;;;;;;;;3.60;60.10;;;;;;4984251;28;19930;-70
2022/03/09 00:23:58;;;;;;;;;;;3.60;60.30;;;;;;4984397;28;19930;-69
2022/03/09 00:26:26;;;;;;;;;;;3.50;60.10;;;;;;4982350;28;19930;-69
2022/03/09 00:28:53;;;;;;;;;;;3.50;60.40;;;;;;4984041;28;19930;-70
2022/03/09 00:31:20;;;;;;;;;;;3.50;60.50;;;;;;4983651;28;19953;-69
2022/03/09 00:33:46;;;;;;;;;;;3.50;60.70;;;;;;4981038;28;20326;-70
2022/03/09 00:36:13;;;;;;;;;;;3.40;60.70;;;;;;4983239;28;19965;-69
2022/03/09 00:38:39;;;;;;;;;;;3.40;60.80;;;;;;4983200;28;19941;-69
2022/03/09 00:41:06;;;;;;;;;;;3.40;60.90;;;;;;4983232;28;19930;-69
2022/03/09 00:43:35;;;;;;;;;;;3.30;60.90;;;;;;4984141;28;19940;-70
2022/03/09 00:46:01;;;;;;;;;;;3.40;61.10;;;;;;4981921;28;19930;-69
2022/03/09 00:48:28;;;;;;;;;;;3.30;61.00;;;;;;4981427;28;19929;-69
2022/03/09 00:50:54;;;;;;;;;;;3.30;61.10;;;;;;4982593;28;19934;-69
2022/03/09 00:53:21;;;;;;;;;;;3.30;61.30;;;;;;4983403;28;19930;-70
2022/03/09 00:55:48;;;;;;;;;;;3.20;61.30;;;;;;4983464;28;19933;-70
2022/03/09 00:58:14;;;;;;;;;;;3.20;61.40;;;;;;4981144;28;20419;-68
2022/03/09 01:00:42;;;;;;;;;;;3.20;61.40;;;;;;4980465;28;20338;-69
2022/03/09 01:03:09;;;;;;;;;;;3.10;61.40;;;;;;4981690;28;19930;-69
2022/03/09 01:05:35;;;;;;;;;;;3.10;61.40;;;;;;4983216;28;19930;-69
2022/03/09 01:08:02;;;;;;;;;;;3.10;61.40;;;;;;4984635;28;19930;-70
2022/03/09 01:10:28;;;;;;;;;;;3.10;61.50;;;;;;4980283;28;19930;-69
2022/03/09 01:12:55;;;;;;;;;;;3.00;61.50;;;;;;4983909;28;19934;-69
2022/03/09 01:15:21;;;;;;;;;;;3.00;61.60;;;;;;4983033;28;20591;-69
2022/03/09 01:17:49;;;;;;;;;;;3.00;61.70;;;;;;4983665;28;19934;-70
2022/03/09 01:20:16;;;;;;;;;;;3.00;61.80;;;;;;4983119;28;19929;-70
2022/03/09 01:22:43;;;;;;;;;;;3.00;61.80;;;;;;4984073;28;19934;-70
2022/03/09 01:25:10;;;;;;;;;;;2.90;61.80;;;;;;4984908;28;19945;-69
2022/03/09 01:27:36;;;;;;;;;;;2.90;61.90;;;;;;4983109;28;20374;-69
2022/03/09 01:30:04;;;;;;;;;;;2.90;61.90;;;;;;4985560;28;20413;-69
2022/03/09 01:32:30;;;;;;;;;;;2.90;61.90;;;;;;4986292;28;19957;-69
2022/03/09 01:34:58;;;;;;;;;;;2.80;61.80;;;;;;4984857;28;19941;-68
2022/03/09 01:37:25;;;;;;;;;;;2.90;62.10;;;;;;4987035;28;19937;-69
2022/03/09 01:39:51;;;;;;;;;;;2.80;62.00;;;;;;4987169;28;19933;-69
2022/03/09 01:42:18;;;;;;;;;;;2.80;62.00;;;;;;4985016;28;19934;-69
2022/03/09 01:44:44;;;;;;;;;;;2.70;62.00;;;;;;4986168;28;19929;-69
2022/03/09 01:47:11;;;;;;;;;;;2.70;62.20;;;;;;4986010;28;19940;-69
2022/03/09 01:49:38;;;;;;;;;;;2.70;62.30;;;;;;4985115;28;19938;-70
2022/03/09 01:52:06;;;;;;;;;;;2.60;62.30;;;;;;4986199;28;20033;-69
2022/03/09 01:54:33;;;;;;;;;;;2.70;62.50;;;;;;4984169;28;20555;-70
2022/03/09 01:57:00;;;;;;;;;;;2.60;62.50;;;;;;4987359;28;20318;-71
2022/03/09 01:59:27;;;;;;;;;;;2.60;62.50;;;;;;4983911;28;19956;-69
2022/03/09 02:01:53;;;;;;;;;;;2.60;62.60;;;;;;4985220;28;19936;-69
2022/03/09 02:04:20;;;;;;;;;;;2.60;62.70;;;;;;4984393;28;19937;-69
2022/03/09 02:06:46;;;;;;;;;;;2.50;62.70;;;;;;4986401;28;19934;-70
2022/03/09 02:11:59;;;;;;;;;;;2.50;62.70;;;;;;4983014;28;19937;-69
2022/03/09 02:14:26;;;;;;;;;;;2.50;62.70;;;;;;4986546;28;19937;-70
2022/03/09 02:16:53;;;;;;;;;;;2.40;62.80;;;;;;4985043;28;19934;-69
2022/03/09 02:19:20;;;;;;;;;;;2.40;62.80;;;;;;4985133;28;19930;-70
2022/03/09 02:21:48;;;;;;;;;;;2.40;62.90;;;;;;4986085;28;19933;-69
2022/03/09 02:24:16;;;;;;;;;;;2.40;63.00;;;;;;4986447;28;20298;-69
2022/03/09 02:26:43;;;;;;;;;;;2.40;63.70;;;;;;4985713;28;19937;-70
2022/03/09 02:29:09;;;;;;;;;;;2.30;62.90;;;;;;4985741;28;20315;-69
2022/03/09 02:31:36;;;;;;;;;;;2.30;62.90;;;;;;4985676;28;19930;-70
2022/03/09 02:34:03;;;;;;;;;;;2.30;63.00;;;;;;4983591;28;19937;-70
2022/03/09 02:36:29;;;;;;;;;;;2.30;63.00;;;;;;4983999;28;19934;-70
2022/03/09 02:38:58;;;;;;;;;;;2.30;63.10;;;;;;4985978;28;20318;-69
2022/03/09 02:41:28;;;;;;;;;;;2.20;63.10;;;;;;4984595;28;19936;-69
2022/03/09 02:43:55;;;;;;;;;;;2.20;63.10;;;;;;4985432;28;19957;-69
2022/03/09 02:46:21;;;;;;;;;;;2.20;63.10;;;;;;4984918;28;19934;-70
2022/03/09 02:48:49;;;;;;;;;;;2.20;63.20;;;;;;4984078;28;19937;-69
2022/03/09 02:51:15;;;;;;;;;;;2.10;63.20;;;;;;4983168;28;20426;-69
2022/03/09 02:53:42;;;;;;;;;;;2.20;63.30;;;;;;4985277;28;19934;-70
2022/03/09 02:56:09;;;;;;;;;;;2.10;63.10;;;;;;4985225;28;19937;-69
2022/03/09 02:58:36;;;;;;;;;;;2.10;63.10;;;;;;4986087;28;19936;-69
2022/03/09 03:01:03;;;;;;;;;;;2.10;63.00;;;;;;4984231;28;19929;-69
2022/03/09 03:03:29;;;;;;;;;;;2.10;63.00;;;;;;4982954;28;19941;-70
2022/03/09 03:05:56;;;;;;;;;;;2.00;63.10;;;;;;4984326;28;19937;-68
2022/03/09 03:08:23;;;;;;;;;;;2.00;63.20;;;;;;4985162;28;19941;-69
2022/03/09 03:10:49;;;;;;;;;;;2.00;63.30;;;;;;4984363;28;19937;-69
2022/03/09 03:13:16;;;;;;;;;;;2.00;63.50;;;;;;4983981;28;19929;-69
2022/03/09 03:15:43;;;;;;;;;;;2.00;63.60;;;;;;4982848;28;19929;-69
2022/03/09 03:18:10;;;;;;;;;;;2.00;63.60;;;;;;4984536;28;19930;-69
2022/03/09 03:20:37;;;;;;;;;;;1.90;63.40;;;;;;4984447;28;21913;-70
2022/03/09 03:23:03;;;;;;;;;;;1.90;63.10;;;;;;4985887;28;19929;-69
2022/03/09 03:25:30;;;;;;;;;;;1.90;63.20;;;;;;4983794;28;20358;-69
2022/03/09 03:27:56;;;;;;;;;;;1.80;63.30;;;;;;4984237;28;19930;-68
2022/03/09 03:30:23;;;;;;;;;;;1.80;63.40;;;;;;4984246;28;19938;-69
2022/03/09 03:32:51;;;;;;;;;;;1.80;63.50;;;;;;4983177;28;20546;-69
2022/03/09 03:35:17;;;;;;;;;;;1.80;63.60;;;;;;4981738;28;20421;-69
2022/03/09 03:37:44;;;;;;;;;;;1.80;63.70;;;;;;4985078;28;20510;-69
2022/03/09 03:40:10;;;;;;;;;;;1.80;63.80;;;;;;4983226;28;20305;-69
2022/03/09 03:42:37;;;;;;;;;;;1.70;63.90;;;;;;4983743;28;20394;-69
2022/03/09 03:45:04;;;;;;;;;;;1.70;63.80;;;;;;4983559;28;19934;-69
2022/03/09 03:47:31;;;;;;;;;;;1.70;63.90;;;;;;4983589;28;19934;-70
2022/03/09 03:49:58;;;;;;;;;;;1.70;64.00;;;;;;4984437;28;19933;-70
2022/03/09 03:52:25;;;;;;;;;;;1.70;63.90;;;;;;4984268;28;19944;-69
2022/03/09 03:54:52;;;;;;;;;;;1.60;63.50;;;;;;4984016;28;19941;-70
2022/03/09 03:57:18;;;;;;;;;;;1.60;63.50;;;;;;4983861;28;19964;-69
2022/03/09 03:59:45;;;;;;;;;;;1.60;63.50;;;;;;4983177;28;20397;-69
2022/03/09 04:02:11;;;;;;;;;;;1.60;63.80;;;;;;4983837;28;20422;-70
2022/03/09 04:04:38;;;;;;;;;;;1.60;63.90;;;;;;4982990;28;19930;-70
2022/03/09 04:07:06;;;;;;;;;;;1.50;63.90;;;;;;4985212;28;19940;-70
2022/03/09 04:09:32;;;;;;;;;;;1.50;63.80;;;;;;4983387;28;19930;-69
2022/03/09 04:11:59;;;;;;;;;;;1.50;63.80;;;;;;4981092;28;19937;-69
2022/03/09 04:14:25;;;;;;;;;;;1.50;63.80;;;;;;4983858;28;19933;-70
2022/03/09 04:16:52;;;;;;;;;;;1.50;64.00;;;;;;4983795;28;19933;-70
2022/03/09 04:19:18;;;;;;;;;;;1.40;63.90;;;;;;4982203;28;19929;-70
2022/03/09 04:21:45;;;;;;;;;;;1.40;64.00;;;;;;4983384;28;19934;-69
2022/03/09 04:24:13;;;;;;;;;;;1.40;64.00;;;;;;4984480;28;19936;-69
2022/03/09 04:26:39;;;;;;;;;;;1.40;64.10;;;;;;4982685;28;19930;-70
2022/03/09 04:29:06;;;;;;;;;;;1.20;64.00;;;;;;4984105;28;19929;-69
2022/03/09 04:31:33;;;;;;;;;;;1.40;64.10;;;;;;4983042;28;19941;-69
2022/03/09 04:33:59;;;;;;;;;;;1.30;64.20;;;;;;4983344;28;19942;-69
2022/03/09 04:36:26;;;;;;;;;;;1.30;64.30;;;;;;4982946;28;19930;-69
2022/03/09 04:38:52;;;;;;;;;;;1.30;64.30;;;;;;4983237;28;20280;-68
2022/03/09 04:41:20;;;;;;;;;;;1.30;64.50;;;;;;4983728;28;20041;-69
2022/03/09 04:43:47;;;;;;;;;;;1.30;64.50;;;;;;4982182;28;19930;-69
2022/03/09 04:46:13;;;;;;;;;;;1.30;64.60;;;;;;4983364;28;19938;-69
2022/03/09 04:48:40;;;;;;;;;;;1.20;64.40;;;;;;4980991;28;19929;-68
2022/03/09 04:51:07;;;;;;;;;;;1.20;64.30;;;;;;4982247;28;19949;-69
2022/03/09 04:53:33;;;;;;;;;;;1.20;64.40;;;;;;4983446;28;19941;-70
2022/03/09 04:56:00;;;;;;;;;;;1.20;64.60;;;;;;4983989;28;19937;-69
2022/03/09 04:58:28;;;;;;;;;;;1.20;64.60;;;;;;4983559;28;19937;-68
2022/03/09 05:00:54;;;;;;;;;;;1.20;64.70;;;;;;4982151;28;19933;-69
2022/03/09 05:03:21;;;;;;;;;;;1.10;64.60;;;;;;4981118;28;20601;-69
2022/03/09 05:05:47;;;;;;;;;;;1.10;64.30;;;;;;4981462;28;19930;-69
2022/03/09 05:08:14;;;;;;;;;;;1.10;64.30;;;;;;4987477;28;19930;-69
2022/03/09 05:10:41;;;;;;;;;;;1.10;64.30;;;;;;4987176;28;19948;-69
2022/03/09 05:13:07;;;;;;;;;;;1.10;64.30;;;;;;4987290;28;20437;-69
2022/03/09 05:15:35;;;;;;;;;;;1.10;64.50;;;;;;4984352;28;19941;-69
2022/03/09 05:18:02;;;;;;;;;;;1.00;64.60;;;;;;4985911;28;20409;-68
2022/03/09 05:20:28;;;;;;;;;;;1.00;64.60;;;;;;4986351;28;19942;-69
2022/03/09 05:22:55;;;;;;;;;;;1.00;64.80;;;;;;4987731;28;19937;-69
2022/03/09 05:25:22;;;;;;;;;;;0.90;64.70;;;;;;4986814;28;19930;-70
2022/03/09 05:27:49;;;;;;;;;;;1.00;64.80;;;;;;4987964;28;20283;-69
2022/03/09 05:30:15;;;;;;;;;;;0.90;64.80;;;;;;4985691;28;19934;-69
2022/03/09 05:32:43;;;;;;;;;;;0.90;65.00;;;;;;4987480;28;19930;-69
2022/03/09 05:35:10;;;;;;;;;;;0.90;65.00;;;;;;4985577;28;19933;-69
2022/03/09 05:37:37;;;;;;;;;;;0.90;65.00;;;;;;4986178;28;19952;-69
2022/03/09 05:40:04;;;;;;;;;;;0.90;65.00;;;;;;4984689;28;20462;-69
2022/03/09 05:42:31;;;;;;;;;;;0.80;65.00;;;;;;4985535;28;19934;-69
2022/03/09 05:44:57;;;;;;;;;;;0.80;65.00;;;;;;4986219;28;19929;-68
2022/03/09 05:47:24;;;;;;;;;;;0.80;65.10;;;;;;4984729;28;20361;-69
2022/03/09 05:49:52;;;;;;;;;;;0.80;65.90;;;;;;4983742;28;19937;-70
2022/03/09 05:52:18;;;;;;;;;;;0.80;65.30;;;;;;4985345;28;20230;-69
2022/03/09 05:54:45;;;;;;;;;;;0.80;65.50;;;;;;4985187;28;19930;-69
2022/03/09 05:57:12;;;;;;;;;;;0.80;65.30;;;;;;4986342;28;19977;-68
2022/03/09 05:59:39;;;;;;;;;;;0.70;65.20;;;;;;4983383;28;20549;-67
2022/03/09 06:02:06;;;;;;;;;;;0.60;64.20;;;;;;4985734;28;19929;-68
2022/03/09 06:04:32;;;;;;;;;;;0.40;64.70;;;;;;4984040;28;19933;-68
2022/03/09 06:07:01;;;;;;;;;;;0.30;65.70;;;;;;4987604;28;19929;-68
2022/03/09 06:09:28;;;;;;;;;;;0.20;66.60;;;;;;4985691;28;19937;-68
2022/03/09 06:11:55;;;;;;;;;;;0.20;66.80;;;;;;4985913;28;19934;-69
2022/03/09 06:14:21;;;;;;;;;;;0.20;66.60;;;;;;4986544;28;19930;-69
2022/03/09 06:16:48;;;;;;;;;;;0.30;66.40;;;;;;4985383;28;19941;-69
2022/03/09 06:19:15;;;;;;;;;;;0.30;66.20;;;;;;4985127;28;20048;-69
2022/03/09 06:21:41;;;;;;;;;;;0.30;66.20;;;;;;4986369;28;20586;-68
2022/03/09 06:24:09;;;;;;;;;;;0.30;66.20;;;;;;4986074;28;19929;-69
2022/03/09 06:26:37;;;;;;;;;;;0.40;66.30;;;;;;4985001;28;19945;-68
2022/03/09 06:29:04;;;;;;;;;;;0.30;66.20;;;;;;4988208;28;19969;-69
2022/03/09 06:31:31;;;;;;;;;;;0.30;66.20;;;;;;4985688;28;19933;-69
2022/03/09 06:33:57;;;;;;;;;;;0.30;66.50;;;;;;4985680;28;20305;-68
2022/03/09 06:36:24;;;;;;;;;;;0.40;66.30;;;;;;4986685;28;19934;-68
2022/03/09 06:38:50;;;;;;;;;;;0.30;66.10;;;;;;4986510;28;20317;-69
2022/03/09 06:41:18;;;;;;;;;;;0.30;66.00;;;;;;4983641;28;20390;-70
2022/03/09 06:43:45;;;;;;;;;;;0.30;66.30;;;;;;4985243;28;19934;-69
2022/03/09 06:46:12;;;;;;;;;;;0.30;66.30;;;;;;4986645;28;19930;-69
2022/03/09 06:48:38;;;;;;;;;;;0.30;66.40;;;;;;4985147;28;19930;-69
2022/03/09 06:51:05;;;;;;;;;;;0.30;66.30;;;;;;4983586;28;19937;-69
2022/03/09 06:53:32;;;;;;;;;;;0.30;66.20;;;;;;4985570;28;19933;-69
2022/03/09 06:55:58;;;;;;;;;;;0.30;66.50;;;;;;4986258;28;19941;-68
2022/03/09 06:58:26;;;;;;;;;;;0.30;66.60;;;;;;4985255;28;19938;-69
2022/03/09 07:00:53;;;;;;;;;;;0.30;66.40;;;;;;4981913;28;19933;-69
2022/03/09 07:03:19;;;;;;;;;;;0.30;66.20;;;;;;4982851;28;19937;-68
2022/03/09 07:05:46;;;;;;;;;;;0.30;66.20;;;;;;4978753;28;19977;-69
2022/03/09 07:08:13;;;;;;;;;;;0.30;66.30;;;;;;4986153;28;19930;-69
2022/03/09 07:10:39;;;;;;;;;;;0.30;66.30;;;;;;4982196;28;19937;-69
2022/03/09 07:13:06;;;;;;;;;;;0.30;66.40;;;;;;4985630;28;19941;-69
2022/03/09 07:15:34;;;;;;;;;;;0.30;66.20;;;;;;4984992;28;19929;-69
2022/03/09 07:18:00;;;;;;;;;;;0.30;66.60;;;;;;4983724;28;19937;-70
2022/03/09 07:20:27;;;;;;;;;;;0.20;66.40;;;;;;4985505;28;19930;-68
2022/03/09 07:22:53;;;;;;;;;;;0.20;66.50;;;;;;4985984;28;19953;-69
2022/03/09 07:25:20;;;;;;;;;;;0.20;66.50;;;;;;4986144;28;19952;-70
2022/03/09 07:27:47;;;;;;;;;;;0.20;66.60;;;;;;4984717;28;19936;-69
2022/03/09 07:30:14;;;;;;;;;;;0.20;66.70;;;;;;4984937;28;19929;-69
2022/03/09 07:32:41;;;;;;;;;;;0.20;66.60;;;;;;4984393;28;19930;-69
2022/03/09 07:35:08;;;;;;;;;;;0.20;66.60;;;;;;4985603;28;19937;-68
2022/03/09 07:37:35;;;;;;;;;;;0.20;66.60;;;;;;4984728;28;19941;-69
2022/03/09 07:40:02;;;;;;;;;;;0.20;66.70;;;;;;4983710;28;19930;-69
2022/03/09 07:42:28;;;;;;;;;;;0.20;66.80;;;;;;4984924;28;20581;-69
2022/03/09 07:44:55;;;;;;;;;;;0.20;66.80;;;;;;4983530;28;19937;-69
2022/03/09 07:47:21;;;;;;;;;;;0.20;67.60;;;;;;4984882;28;19929;-69
2022/03/09 07:49:49;;;;;;;;;;;0.20;66.80;;;;;;4984826;28;19930;-70
2022/03/09 07:52:16;;;;;;;;;;;0.10;66.80;;;;;;4982631;28;19930;-70
2022/03/09 07:54:42;;;;;;;;;;;0.20;66.70;;;;;;4984974;28;19926;-69
2022/03/09 07:57:09;;;;;;;;;;;0.20;66.80;;;;;;4985310;28;19930;-70
2022/03/09 07:59:36;;;;;;;;;;;0.20;66.70;;;;;;4982021;28;19968;-70
2022/03/09 08:02:02;;;;;;;;;;;0.20;66.90;;;;;;4983874;28;19929;-70
2022/03/09 08:04:29;;;;;;;;;;;0.20;66.80;;;;;;4982312;28;20314;-69
2022/03/09 08:06:57;;;;;;;;;;;0.20;66.60;;;;;;4975901;28;19937;-70
2022/03/09 08:09:23;;;;;;;;;;;0.20;66.60;;;;;;4978811;28;19930;-70
2022/03/09 08:11:50;;;;;;;;;;;0.20;66.50;;;;;;4984528;28;19984;-69
2022/03/09 08:14:17;;;;;;;;;;;0.20;66.50;;;;;;4981066;28;20026;-70
2022/03/09 08:16:43;;;;;;;;;;;0.20;66.50;;;;;;4980750;28;19930;-70
2022/03/09 08:19:10;;;;;;;;;;;0.20;66.40;;;;;;4983622;28;19941;-70
2022/03/09 08:21:37;;;;;;;;;;;0.20;66.40;;;;;;4974570;28;19937;-69
2022/03/09 08:24:05;;;;;;;;;;;0.20;66.30;;;;;;4981533;28;19929;-69
2022/03/09 08:26:32;;;;;;;;;;;0.20;66.20;;;;;;4975145;28;19929;-69
2022/03/09 08:28:58;;;;;;;;;;;0.30;66.30;;;;;;4980190;28;19937;-69
2022/03/09 08:31:26;;;;;;;;;;;0.30;66.20;;;;;;4980011;28;20322;-70
2022/03/09 08:33:52;;;;;;;;;;;0.30;66.20;;;;;;4981451;28;19940;-70
2022/03/09 08:36:19;;;;;;;;;;;0.30;66.10;;;;;;4984400;28;19945;-70
2022/03/09 08:38:45;;;;;;;;;;;0.30;65.90;;;;;;4982602;28;19940;-70
2022/03/09 08:41:13;;;;;;;;;;;0.40;65.90;;;;;;4990065;28;19930;-69
2022/03/09 08:43:40;;;;;;;;;;;0.40;65.90;;;;;;4985434;28;19937;-69
2022/03/09 08:46:06;;;;;;;;;;;0.50;66.60;;;;;;4988941;28;19937;-71
2022/03/09 08:48:33;;;;;;;;;;;0.50;65.60;;;;;;4986837;28;20028;-71
2022/03/09 08:50:59;;;;;;;;;;;0.60;65.60;;;;;;4985950;28;19937;-70
2022/03/09 08:53:26;;;;;;;;;;;0.60;65.50;;;;;;4988226;28;19941;-69
2022/03/09 08:55:52;;;;;;;;;;;0.70;65.40;;;;;;4988164;28;19937;-69
2022/03/09 08:58:20;;;;;;;;;;;0.80;65.30;;;;;;4987883;28;20014;-70
2022/03/09 09:00:47;;;;;;;;;;;0.80;65.00;;;;;;4987314;28;19937;-70
2022/03/09 09:03:13;;;;;;;;;;;0.90;64.80;;;;;;4985340;28;19956;-70
2022/03/09 09:05:40;;;;;;;;;;;0.90;64.60;;;;;;4987383;28;19965;-70
2022/03/09 09:08:07;;;;;;;;;;;1.00;64.50;;;;;;4986774;28;19942;-69
2022/03/09 09:10:33;;;;;;;;;;;1.00;64.40;;;;;;4988058;28;19976;-69
2022/03/09 09:13:00;;;;;;;;;;;1.10;64.30;;;;;;4983391;28;19930;-70
2022/03/09 09:15:29;;;;;;;;;;;1.20;64.00;;;;;;4987436;28;19930;-70
2022/03/09 09:18:00;;;;;;;;;;;1.20;63.80;;;;;;4981925;28;20440;-70
2022/03/09 09:20:27;;;;;;;;;;;1.30;63.60;;;;;;4987778;28;20108;-70
2022/03/09 09:22:54;;;;;;;;;;;1.30;63.40;;;;;;4979884;28;19937;-70
2022/03/09 09:25:21;;;;;;;;;;;1.40;63.50;;;;;;4982935;28;20398;-70
2022/03/09 09:27:48;;;;;;;;;;;1.40;63.30;;;;;;4982465;28;19937;-70
2022/03/09 09:30:15;;;;;;;;;;;1.50;63.00;;;;;;4980697;28;19936;-69
2022/03/09 09:32:43;;;;;;;;;;;1.60;62.80;;;;;;4985064;28;19985;-70
2022/03/09 09:35:10;;;;;;;;;;;1.60;62.60;;;;;;4987075;28;19929;-70
2022/03/09 09:37:37;;;;;;;;;;;1.70;62.40;;;;;;4988385;28;20382;-70
2022/03/09 09:40:04;;;;;;;;;;;1.70;62.10;;;;;;4986986;28;20005;-70
2022/03/09 09:42:31;;;;;;;;;;;1.80;62.00;;;;;;4980287;28;19952;-69
2022/03/09 09:45:00;;;;;;;;;;;1.90;61.80;;;;;;4985524;28;20471;-70
2022/03/09 09:47:27;;;;;;;;;;;1.90;61.50;;;;;;4985831;28;19934;-70
2022/03/09 09:49:55;;;;;;;;;;;2.00;61.40;;;;;;4986662;28;19931;-70
2022/03/09 09:52:22;;;;;;;;;;;2.10;61.20;;;;;;4984004;28;19976;-70
2022/03/09 09:54:50;;;;;;;;;;;2.20;61.10;;;;;;4987268;28;19933;-69
2022/03/09 09:57:16;;;;;;;;;;;2.30;60.90;;;;;;4988597;28;20040;-70
2022/03/09 09:59:44;;;;;;;;;;;2.30;60.60;;;;;;4986646;28;20057;-70
2022/03/09 10:02:10;;;;;;;;;;;2.40;60.50;;;;;;4985431;28;20096;-70
2022/03/09 10:04:38;;;;;;;;;;;2.50;60.40;;;;;;4985545;28;19947;-70
2022/03/09 10:07:06;;;;;;;;;;;2.60;60.40;;;;;;4985244;28;20330;-71
2022/03/09 10:09:34;;;;;;;;;;;2.60;60.20;;;;;;4985366;28;19936;-70
2022/03/09 10:12:01;;;;;;;;;;;2.70;60.10;;;;;;4984015;28;19970;-70
2022/03/09 10:14:41;;;;;;;;;;;2.80;60.00;;;;;;4982350;28;19929;-70
2022/03/09 10:17:08;;;;;;;;;;;2.80;59.90;;;;;;4982209;28;20297;-71
2022/03/09 10:19:36;;;;;;;;;;;2.90;59.80;;;;;;4981119;28;20439;-70
2022/03/09 10:22:22;;;;;;;;;;;3.00;59.70;;;;;;4980964;28;19936;-70
2022/03/09 10:24:50;;;;;;;;;;;3.10;59.60;;;;;;4987617;28;19929;-71
2022/03/09 10:27:32;;;;;;;;;;;3.20;59.50;;;;;;4977140;28;19933;-70
2022/03/09 10:29:59;;;;;;;;;;;3.30;59.40;;;;;;4980668;28;19930;-70
2022/03/09 10:32:41;;;;;;;;;;;3.30;59.20;;;;;;4983573;28;19938;-70
2022/03/09 10:35:08;;;;;;;;;;;3.40;59.10;;;;;;4986081;28;19929;-70
2022/03/09 10:37:38;;;;;;;;;;;3.50;59.00;;;;;;4986379;28;20657;-70
2022/03/09 10:40:10;;;;;;;;;;;3.60;58.90;;;;;;4985799;28;19941;-70
2022/03/09 10:42:36;;;;;;;;;;;3.60;58.60;;;;;;4986145;28;19991;-70
2022/03/09 10:45:04;;;;;;;;;;;3.70;58.40;;;;;;4986109;28;20352;-70
2022/03/09 10:47:31;;;;;;;;;;;3.80;58.20;;;;;;4976786;28;19926;-69
2022/03/09 10:50:07;;;;;;;;;;;3.80;58.10;;;;;;4986296;28;19940;-70
2022/03/09 10:52:44;;;;;;;;;;;3.90;57.90;;;;;;4983242;28;19930;-70
2022/03/09 10:55:22;;;;;;;;;;;4.00;57.70;;;;;;4983509;28;19929;-69
2022/03/09 10:57:48;;;;;;;;;;;4.10;57.70;;;;;;4986036;28;19930;-69
2022/03/09 11:00:15;;;;;;;;;;;4.20;57.70;;;;;;4984154;28;20009;-70
2022/03/09 11:02:48;;;;;;;;;;;4.30;57.60;;;;;;4983075;28;19930;-70
2022/03/09 11:05:17;;;;;;;;;;;4.30;57.50;;;;;;4986628;28;19929;-70
2022/03/09 11:07:44;;;;;;;;;;;4.40;57.40;;;;;;4985653;28;19934;-70
2022/03/09 11:10:13;;;;;;;;;;;4.50;57.20;;;;;;4983882;28;19930;-70
2022/03/09 11:12:40;;;;;;;;;;;4.60;57.10;;;;;;4985025;28;19984;-70
2022/03/09 11:15:08;;;;;;;;;;;4.70;57.00;;;;;;4985888;28;19930;-70
2022/03/09 11:17:35;;;;;;;;;;;4.70;56.80;;;;;;4983442;28;19938;-70
2022/03/09 11:20:01;;;;;;;;;;;4.80;56.70;;;;;;4985695;28;19953;-70
2022/03/09 11:22:28;;;;;;;;;;;4.90;56.50;;;;;;4986098;28;20436;-70
2022/03/09 11:24:55;;;;;;;;;;;5.00;56.50;;;;;;4985007;28;19936;-70
2022/03/09 11:27:22;;;;;;;;;;;5.00;56.30;;;;;;4986134;28;19942;-70
2022/03/09 11:29:51;;;;;;;;;;;5.10;56.20;;;;;;4985463;28;19930;-69
2022/03/09 11:32:33;;;;;;;;;;;5.40;56.10;;;;;;4984633;28;19959;-70
2022/03/09 11:34:59;;;;;;;;;;;5.30;55.60;;;;;;4977470;28;19938;-70
2022/03/09 11:37:35;;;;;;;;;;;5.30;55.60;;;;;;4985826;28;19936;-71
2022/03/09 11:40:14;;;;;;;;;;;5.40;55.30;;;;;;4982946;28;19940;-70
2022/03/09 11:42:42;;;;;;;;;;;5.50;55.30;;;;;;4978476;28;19965;-70
2022/03/09 11:45:31;;;;;;;;;;;5.50;55.10;;;;;;4983734;28;19929;-71
2022/03/09 11:48:00;;;;;;;;;;;5.60;55.00;;;;;;4982468;28;19929;-70
2022/03/09 11:50:27;;;;;;;;;;;5.70;54.60;;;;;;4981422;28;19937;-70
2022/03/09 11:52:56;;;;;;;;;;;5.80;54.60;;;;;;4983227;28;19958;-71
2022/03/09 11:55:22;;;;;;;;;;;5.80;54.50;;;;;;4982634;28;19983;-71
2022/03/09 11:58:02;;;;;;;;;;;5.90;54.40;;;;;;4985020;28;19930;-70
2022/03/09 12:00:29;;;;;;;;;;;6.00;54.30;;;;;;4980053;28;19929;-70
2022/03/09 12:02:57;;;;;;;;;;;6.10;54.20;;;;;;4983320;28;19934;-71
2022/03/09 12:05:36;;;;;;;;;;;6.10;54.10;;;;;;4986273;28;19936;-71
2022/03/09 12:08:04;;;;;;;;;;;6.20;53.80;;;;;;4982610;28;19930;-70
2022/03/09 12:10:41;;;;;;;;;;;6.30;53.70;;;;;;4984966;28;19929;-70
2022/03/09 12:13:35;;;;;;;;;;;6.30;53.40;;;;;;4980269;28;19929;-70
2022/03/09 12:16:12;;;;;;;;;;;6.40;53.20;;;;;;4984232;28;19934;-71
2022/03/09 12:18:41;;;;;;;;;;;6.50;53.10;;;;;;4984314;28;19929;-70
2022/03/09 12:21:08;;;;;;;;;;;6.50;52.90;;;;;;4985301;28;19929;-71
2022/03/09 12:23:35;;;;;;;;;;;6.60;51.90;;;;;;4984458;28;19944;-70
2022/03/09 12:26:02;;;;;;;;;;;6.70;51.10;;;;;;4984289;28;19930;-70
2022/03/09 12:28:44;;;;;;;;;;;7.40;50.90;;;;;;4982893;28;19942;-70
2022/03/09 12:31:19;;;;;;;;;;;6.80;51.20;;;;;;4979668;28;20020;-70
2022/03/09 12:33:50;;;;;;;;;;;6.90;51.70;;;;;;4981344;28;19936;-71
2022/03/09 12:36:17;;;;;;;;;;;6.90;51.10;;;;;;4981887;28;20461;-70
2022/03/09 12:38:44;;;;;;;;;;;7.00;51.40;;;;;;4982718;28;20395;-71
2022/03/09 12:41:23;;;;;;;;;;;7.10;51.50;;;;;;4980035;28;20019;-71
2022/03/09 12:43:50;;;;;;;;;;;7.20;52.10;;;;;;4981336;28;20033;-70
2022/03/09 12:46:17;;;;;;;;;;;7.20;51.30;;;;;;4982359;28;19934;-70
2022/03/09 12:48:44;;;;;;;;;;;7.20;51.10;;;;;;4980444;28;20405;-71
2022/03/09 12:51:12;;;;;;;;;;;7.30;51.00;;;;;;4979359;28;19929;-70
2022/03/09 12:53:39;;;;;;;;;;;7.40;50.50;;;;;;4982486;28;20634;-70
2022/03/09 12:56:15;;;;;;;;;;;7.40;50.10;;;;;;4983417;28;19926;-70
2022/03/09 12:58:42;;;;;;;;;;;7.50;50.60;;;;;;4985196;28;19937;-71
2022/03/09 13:01:09;;;;;;;;;;;8.00;51.00;;;;;;4982183;28;20403;-71
2022/03/09 13:03:36;;;;;;;;;;;7.50;50.70;;;;;;4982132;28;19938;-71
2022/03/09 13:06:05;;;;;;;;;;;7.60;50.60;;;;;;4984866;28;19973;-70
2022/03/09 13:08:35;;;;;;;;;;;7.70;50.50;;;;;;4981038;28;19936;-71
2022/03/09 13:11:04;;;;;;;;;;;7.70;50.30;;;;;;4981003;28;19930;-71
2022/03/09 13:13:31;;;;;;;;;;;7.80;49.30;;;;;;4984551;28;19936;-71
2022/03/09 13:15:59;;;;;;;;;;;7.80;50.00;;;;;;4984094;28;20420;-70
2022/03/09 13:18:27;;;;;;;;;;;7.90;49.90;;;;;;4984581;28;19930;-71
2022/03/09 13:20:53;;;;;;;;;;;8.00;49.90;;;;;;4983777;28;19930;-70
2022/03/09 13:23:27;;;;;;;;;;;8.00;49.90;;;;;;4984653;28;19930;-70
2022/03/09 13:25:55;;;;;;;;;;;8.10;49.80;;;;;;4984582;28;19929;-71
2022/03/09 13:28:28;;;;;;;;;;;8.10;49.70;;;;;;4986459;28;19934;-70
2022/03/09 13:30:55;;;;;;;;;;;8.20;49.70;;;;;;4987793;28;20366;-71
2022/03/09 13:33:22;;;;;;;;;;;8.20;48.90;;;;;;4983614;28;20457;-71
2022/03/09 13:35:49;;;;;;;;;;;8.30;49.50;;;;;;4987248;28;19934;-71
2022/03/09 13:38:20;;;;;;;;;;;8.30;49.40;;;;;;4987633;28;20350;-70
2022/03/09 13:40:47;;;;;;;;;;;8.40;49.30;;;;;;4986949;28;20428;-70
2022/03/09 13:43:14;;;;;;;;;;;8.50;49.10;;;;;;4985596;28;19953;-71
2022/03/09 13:45:41;;;;;;;;;;;9.60;49.50;;;;;;4987364;28;19929;-71
2022/03/09 13:48:19;;;;;;;;;;;8.50;48.80;;;;;;4984857;28;19940;-71
2022/03/09 13:50:48;;;;;;;;;;;8.70;47.50;;;;;;4986654;28;19929;-71
2022/03/09 13:53:15;;;;;;;;;;;8.70;48.50;;;;;;4986692;28;20012;-71
2022/03/09 13:55:43;;;;;;;;;;;8.70;48.60;;;;;;4988092;28;19929;-71
2022/03/09 13:58:11;;;;;;;;;;;8.70;47.80;;;;;;4986728;28;19941;-76
2022/03/09 14:00:40;;;;;;;;;;;8.80;48.00;;;;;;4981921;28;19936;-77
2022/03/09 14:03:08;;;;;;;;;;;8.80;48.30;;;;;;4983830;28;19938;-76
2022/03/09 14:05:35;;;;;;;;;;;8.90;48.10;;;;;;4985788;28;19969;-76
2022/03/09 14:08:02;;;;;;;;;;;9.00;48.40;;;;;;4984946;28;19930;-76
2022/03/09 14:10:32;;;;;;;;;;;9.00;48.40;;;;;;4983832;28;20386;-76
2022/03/09 14:13:08;;;;;;;;;;;9.00;48.90;;;;;;4984573;28;20028;-76
2022/03/09 14:15:34;;;;;;;;;;;9.10;48.20;;;;;;4983746;28;19929;-76
2022/03/09 14:18:02;;;;;;;;;;;9.20;48.20;;;;;;4980517;28;19935;-76
2022/03/09 14:20:29;;;;;;;;;;;9.20;48.10;;;;;;4983273;28;19929;-75
2022/03/09 14:22:56;;;;;;;;;;;9.30;47.50;;;;;;4984087;28;19936;-76
2022/03/09 14:25:23;;;;;;;;;;;9.50;47.80;;;;;;4983944;28;19933;-75
2022/03/09 14:27:53;;;;;;;;;;;9.40;47.70;;;;;;4983526;28;20314;-76
2022/03/09 14:30:19;;;;;;;;;;;9.50;47.60;;;;;;4985988;28;19929;-76
2022/03/09 14:32:46;;;;;;;;;;;9.50;46.90;;;;;;4982601;28;19929;-76
2022/03/09 14:35:15;;;;;;;;;;;9.60;45.80;;;;;;4981016;28;19930;-76
2022/03/09 14:37:43;;;;;;;;;;;9.60;46.30;;;;;;4982139;28;19961;-76